createdAt,value
2022-12-19T00:01:36.678Z,10.00
2022-12-19T00:04:08.541Z,8.70
2022-12-19T00:06:37.406Z,9.25
2022-12-19T00:09:05.184Z,13.70
2022-12-19T00:11:33.218Z,8.50
2022-12-19T00:14:00.824Z,11.07
2022-12-19T00:16:29.447Z,8.03
2022-12-19T00:19:02.736Z,11.03
2022-12-19T00:23:58.883Z,16.43
2022-12-19T00:26:34.156Z,10.47
2022-12-19T00:29:02.939Z,12.67
2022-12-19T00:31:32.510Z,9.07
2022-12-19T00:34:02.362Z,8.03
2022-12-19T00:36:32.227Z,16.37
2022-12-19T00:39:00.527Z,10.73
2022-12-19T00:41:30.029Z,12.23
2022-12-19T00:43:59.217Z,13.93
2022-12-19T00:46:27.314Z,13.07
2022-12-19T00:48:54.927Z,16.03
2022-12-19T00:51:24.798Z,15.00
2022-12-19T00:53:53.395Z,16.37
2022-12-19T00:56:23.146Z,16.90
2022-12-19T00:58:50.342Z,12.03
2022-12-19T01:01:23.097Z,14.23
2022-12-19T01:06:36.937Z,16.73
2022-12-19T01:09:03.793Z,16.70
2022-12-19T01:11:49.209Z,12.03
2022-12-19T01:14:22.383Z,16.13
2022-12-19T01:16:50.066Z,13.00
2022-12-19T01:19:16.823Z,10.13
2022-12-19T01:21:43.637Z,15.73
2022-12-19T01:24:10.944Z,12.93
2022-12-19T01:26:37.753Z,17.00
2022-12-19T01:29:05.108Z,13.13
2022-12-19T01:31:33.521Z,12.17
2022-12-19T01:34:01.283Z,11.80
2022-12-19T01:36:28.522Z,10.67
2022-12-19T01:38:57.444Z,8.47
2022-12-19T01:41:24.431Z,10.67
2022-12-19T01:44:03.259Z,16.00
2022-12-19T01:46:40.119Z,11.43
2022-12-19T01:49:15.943Z,16.80
2022-12-19T01:51:46.992Z,12.70
2022-12-19T01:54:22.213Z,12.10
2022-12-19T01:56:52.248Z,7.80
2022-12-19T01:59:27.698Z,13.07
2022-12-19T02:02:00.281Z,15.47
2022-12-19T02:04:30.272Z,15.00
2022-12-19T02:07:05.147Z,11.43
2022-12-19T02:09:45.410Z,14.00
2022-12-19T02:12:12.826Z,14.00
2022-12-19T02:14:40.347Z,14.73
2022-12-19T02:17:42.649Z,17.47
2022-12-19T02:20:26.771Z,15.47
2022-12-19T02:23:15.221Z,18.43
2022-12-19T02:26:01.721Z,20.93
2022-12-19T02:29:05.819Z,17.60
2022-12-19T02:31:43.438Z,17.33
2022-12-19T02:34:29.736Z,20.53
2022-12-19T02:37:12.548Z,17.57
2022-12-19T02:39:55.846Z,12.80
2022-12-19T02:42:34.936Z,16.92
2022-12-19T02:45:05.699Z,17.13
2022-12-19T02:47:33.388Z,19.40
2022-12-19T02:50:00.098Z,15.87
2022-12-19T02:52:26.745Z,16.17
2022-12-19T02:55:07.856Z,15.70
2022-12-19T02:57:42.097Z,16.20
2022-12-19T03:00:13.531Z,15.50
2022-12-19T03:02:57.934Z,18.80
2022-12-19T03:06:05.580Z,15.30
2022-12-19T03:08:57.495Z,11.60
2022-12-19T03:11:31.975Z,17.90
2022-12-19T03:14:06.583Z,13.30
2022-12-19T03:16:38.311Z,8.53
2022-12-19T03:19:10.614Z,12.07
2022-12-19T03:21:40.496Z,10.27
2022-12-19T03:24:09.695Z,12.17
2022-12-19T03:26:53.396Z,13.90
2022-12-19T03:29:32.101Z,10.43
2022-12-19T03:32:03.455Z,15.40
2022-12-19T03:34:39.315Z,14.20
2022-12-19T03:37:10.844Z,8.60
2022-12-19T03:39:41.496Z,12.15
2022-12-19T03:42:29.085Z,12.67
2022-12-19T03:44:58.622Z,14.53
2022-12-19T03:47:35.536Z,13.70
2022-12-19T03:50:02.552Z,16.77
2022-12-19T03:52:53.897Z,18.53
2022-12-19T03:55:41.192Z,17.23
2022-12-19T03:58:18.354Z,19.67
2022-12-19T04:00:49.947Z,15.97
2022-12-19T04:03:18.495Z,21.63
2022-12-19T04:05:50.767Z,19.40
2022-12-19T04:08:17.960Z,11.18
2022-12-19T04:10:51.626Z,10.03
2022-12-19T04:13:25.965Z,12.90
2022-12-19T04:16:04.068Z,13.60
2022-12-19T04:18:31.572Z,10.30
2022-12-19T04:21:13.387Z,14.40
2022-12-19T04:23:48.966Z,10.07
2022-12-19T04:26:17.166Z,7.17
2022-12-19T04:28:58.313Z,3.57
2022-12-19T04:31:25.373Z,6.90
2022-12-19T04:33:52.119Z,4.90
2022-12-19T04:36:18.937Z,4.43
2022-12-19T04:38:45.779Z,4.90
2022-12-19T04:41:12.592Z,4.80
2022-12-19T04:43:39.261Z,12.80
2022-12-19T04:46:06.372Z,3.77
2022-12-19T04:48:35.860Z,6.90
2022-12-19T04:51:02.581Z,7.73
2022-12-19T04:53:29.633Z,6.53
2022-12-19T04:56:03.379Z,12.33
2022-12-19T04:58:30.421Z,22.07
2022-12-19T05:01:11.891Z,17.73
2022-12-19T05:03:38.879Z,14.30
2022-12-19T05:06:09.564Z,17.80
2022-12-19T05:08:38.395Z,15.97
2022-12-19T05:11:06.544Z,20.67
2022-12-19T05:13:33.173Z,22.73
2022-12-19T05:16:07.149Z,15.83
2022-12-19T05:18:34.556Z,22.63
2022-12-19T05:21:01.394Z,21.90
2022-12-19T05:23:28.988Z,23.73
2022-12-19T05:25:59.969Z,19.30
2022-12-19T05:28:26.648Z,24.83
2022-12-19T05:31:03.389Z,26.83
2022-12-19T05:33:30.271Z,23.00
2022-12-19T05:35:57.058Z,20.27
2022-12-19T05:38:23.969Z,22.50
2022-12-19T05:40:50.653Z,22.90
2022-12-19T05:43:17.425Z,21.03
2022-12-19T05:45:44.357Z,19.53
2022-12-19T05:48:11.145Z,25.40
2022-12-19T05:50:37.832Z,22.47
2022-12-19T05:53:04.626Z,19.30
2022-12-19T05:55:31.692Z,20.70
2022-12-19T05:57:58.302Z,27.17
2022-12-19T06:00:25.866Z,20.80
2022-12-19T06:02:54.991Z,26.50
2022-12-19T06:05:21.698Z,25.63
2022-12-19T06:07:48.624Z,19.30
2022-12-19T06:10:15.404Z,15.70
2022-12-19T06:12:42.047Z,21.73
2022-12-19T06:15:09.264Z,19.93
2022-12-19T06:17:35.959Z,16.73
2022-12-19T06:20:02.664Z,20.33
2022-12-19T06:22:29.491Z,27.23
2022-12-19T06:24:56.226Z,25.10
2022-12-19T06:27:22.842Z,18.87
2022-12-19T06:29:49.678Z,21.20
2022-12-19T06:32:16.408Z,17.53
2022-12-19T06:37:29.905Z,19.33
2022-12-19T06:39:56.582Z,14.60
2022-12-19T06:42:23.240Z,17.90
2022-12-19T06:44:56.008Z,20.00
2022-12-19T06:47:23.840Z,16.73
2022-12-19T06:49:50.658Z,15.80
2022-12-19T06:52:18.230Z,19.77
2022-12-19T06:54:44.949Z,16.30
2022-12-19T06:57:11.838Z,19.80
2022-12-19T06:59:38.619Z,16.37
2022-12-19T07:02:31.511Z,15.77
2022-12-19T07:05:03.209Z,14.77
2022-12-19T07:07:30.199Z,15.37
2022-12-19T07:09:56.929Z,12.37
2022-12-19T07:12:23.848Z,16.03
2022-12-19T07:14:53.633Z,13.47
2022-12-19T07:17:22.271Z,16.97
2022-12-19T07:19:49.065Z,10.87
2022-12-19T07:22:15.946Z,20.93
2022-12-19T07:24:43.028Z,16.53
2022-12-19T07:27:09.808Z,15.20
2022-12-19T07:29:36.549Z,15.03
2022-12-19T07:32:03.300Z,12.23
2022-12-19T07:34:30.363Z,16.03
2022-12-19T07:36:57.097Z,16.97
2022-12-19T07:39:23.853Z,15.93
2022-12-19T07:41:50.577Z,14.10
2022-12-19T07:44:17.507Z,17.57
2022-12-19T07:46:44.801Z,11.83
2022-12-19T07:49:11.660Z,11.90
2022-12-19T07:51:38.345Z,11.87
2022-12-19T07:54:05.083Z,12.10
2022-12-19T07:56:31.869Z,9.43
2022-12-19T07:58:59.215Z,12.33
2022-12-19T08:01:28.460Z,7.40
2022-12-19T08:03:57.133Z,7.73
2022-12-19T08:06:24.720Z,7.30
2022-12-19T08:08:51.361Z,6.53
2022-12-19T08:11:27.472Z,3.63
2022-12-19T08:13:54.593Z,5.07
2022-12-19T08:16:21.414Z,8.10
2022-12-19T08:18:48.520Z,6.77
2022-12-19T08:21:15.239Z,9.67
2022-12-19T08:23:41.900Z,14.20
2022-12-19T08:26:12.344Z,2.60
2022-12-19T08:28:39.265Z,5.90
2022-12-19T08:31:11.180Z,3.07
2022-12-19T08:33:38.462Z,3.58
2022-12-19T08:36:10.548Z,1.80
2022-12-19T08:38:39.820Z,1.77
2022-12-19T08:41:06.812Z,5.20
2022-12-19T08:43:33.613Z,3.70
2022-12-19T08:46:00.441Z,5.17
2022-12-19T08:48:27.579Z,14.67
2022-12-19T08:50:57.552Z,24.10
2022-12-19T08:53:26.819Z,15.47
2022-12-19T08:55:58.715Z,13.97
2022-12-19T08:58:26.420Z,16.37
2022-12-19T09:00:57.602Z,18.03
2022-12-19T09:03:36.801Z,17.53
2022-12-19T09:06:19.222Z,14.33
2022-12-19T09:08:46.838Z,11.50
2022-12-19T09:11:18.647Z,4.63
2022-12-19T09:13:46.925Z,6.70
2022-12-19T09:16:19.900Z,4.50
2022-12-19T09:18:49.056Z,5.57
2022-12-19T09:21:16.982Z,8.03
2022-12-19T09:23:47.979Z,7.57
2022-12-19T09:26:16.899Z,8.48
2022-12-19T09:28:43.609Z,8.57
2022-12-19T09:31:19.242Z,7.67
2022-12-19T09:33:46.839Z,8.57
2022-12-19T09:36:19.707Z,5.27
2022-12-19T09:41:47.112Z,7.70
2022-12-19T09:44:41.734Z,10.53
2022-12-19T09:47:32.988Z,20.00
2022-12-19T09:50:01.783Z,25.23
2022-12-19T09:52:40.492Z,23.93
2022-12-19T09:55:28.936Z,29.93
2022-12-19T09:58:37.248Z,36.90
2022-12-19T10:01:14.093Z,40.27
2022-12-19T10:03:48.216Z,32.60
2022-12-19T10:07:06.790Z,35.30
2022-12-19T10:11:49.574Z,28.03
2022-12-19T10:12:42.399Z,31.67
2022-12-19T10:15:36.685Z,33.77
2022-12-19T10:18:16.605Z,29.55
2022-12-19T10:21:06.987Z,26.80
2022-12-19T10:23:45.711Z,21.00
2022-12-19T10:26:20.784Z,16.20
2022-12-19T10:29:09.079Z,18.13
2022-12-19T10:31:41.808Z,13.80
2022-12-19T10:37:19.386Z,15.00
2022-12-19T10:39:46.185Z,24.40
2022-12-19T10:42:25.354Z,18.23
2022-12-19T10:44:53.543Z,17.70
2022-12-19T10:47:20.275Z,18.90
2022-12-19T10:49:47.164Z,16.47
2022-12-19T10:52:13.788Z,20.17
2022-12-19T10:54:43.798Z,14.80
2022-12-19T10:57:22.742Z,21.77
2022-12-19T11:00:06.964Z,12.90
2022-12-19T11:02:39.785Z,14.77
2022-12-19T11:05:22.650Z,8.80
2022-12-19T11:08:11.397Z,7.88
2022-12-19T11:11:29.345Z,8.27
2022-12-19T11:19:40.040Z,4.80
2022-12-19T11:21:48.338Z,7.17
2022-12-19T11:22:39.872Z,11.93
2022-12-19T11:29:33.479Z,6.23
2022-12-19T11:29:37.047Z,2.97
2022-12-19T11:29:42.225Z,3.23
2022-12-19T11:33:19.563Z,4.90
2022-12-19T11:35:52.315Z,9.40
2022-12-19T11:38:38.453Z,7.88
2022-12-19T11:41:19.549Z,7.70
2022-12-19T11:44:11.946Z,3.70
2022-12-19T11:46:56.988Z,6.70
2022-12-19T11:49:40.749Z,4.17
2022-12-19T11:53:02.763Z,4.60
2022-12-19T11:55:24.767Z,5.27
2022-12-19T11:57:53.336Z,5.53
2022-12-19T12:00:22.797Z,2.43
2022-12-19T12:03:40.769Z,4.30
2022-12-19T12:06:16.363Z,2.67
2022-12-19T12:10:42.674Z,1.10
2022-12-19T12:18:46.716Z,2.27
2022-12-19T12:24:37.773Z,1.60
2022-12-19T12:31:01.643Z,2.60
2022-12-19T12:31:22.105Z,1.07
2022-12-19T12:31:26.201Z,2.07
2022-12-19T12:31:43.409Z,1.83
2022-12-19T12:32:03.365Z,2.80
2022-12-19T12:35:56.812Z,2.27
2022-12-19T12:39:00.710Z,2.53
2022-12-19T12:41:56.313Z,2.23
2022-12-19T12:44:33.151Z,2.30
2022-12-19T12:47:20.577Z,1.77
2022-12-19T12:49:56.879Z,3.53
2022-12-19T12:52:34.495Z,2.67
2022-12-19T12:55:03.310Z,4.60
2022-12-19T12:57:30.163Z,2.37
2022-12-19T13:00:25.610Z,3.47
2022-12-19T13:03:06.072Z,3.73
2022-12-19T13:05:51.197Z,2.90
2022-12-19T13:08:38.188Z,4.87
2022-12-19T13:11:49.723Z,3.57
2022-12-19T13:14:34.671Z,4.60
2022-12-19T13:17:06.225Z,6.30
2022-12-19T13:19:38.727Z,4.33
2022-12-19T13:22:05.606Z,3.10
2022-12-19T13:24:50.171Z,3.03
2022-12-19T13:27:19.913Z,2.97
2022-12-19T13:29:54.051Z,3.60
2022-12-19T13:32:22.252Z,5.67
2022-12-19T13:35:06.226Z,5.10
2022-12-19T13:39:52.265Z,3.57
2022-12-19T13:41:30.380Z,2.43
2022-12-19T13:44:00.084Z,1.70
2022-12-19T13:46:39.837Z,1.37
2022-12-19T13:49:24.190Z,1.23
2022-12-19T13:51:57.160Z,0.87
2022-12-19T13:54:48.580Z,1.73
2022-12-19T13:57:32.281Z,1.97
2022-12-19T14:00:03.679Z,1.47
2022-12-19T14:02:44.038Z,2.50
2022-12-19T14:06:17.386Z,1.08
2022-12-19T14:08:28.913Z,3.57
2022-12-19T14:11:37.453Z,1.73
2022-12-19T14:14:27.459Z,2.40
2022-12-19T14:16:56.481Z,1.90
2022-12-19T14:19:29.273Z,2.53
2022-12-19T14:28:15.123Z,0.47
2022-12-19T14:28:24.788Z,1.23
2022-12-19T14:31:00.553Z,1.57
2022-12-19T14:33:46.231Z,1.67
2022-12-19T14:36:31.079Z,2.10
2022-12-19T14:39:27.429Z,2.40
2022-12-19T14:42:06.788Z,3.40
2022-12-19T14:52:51.858Z,3.17
2022-12-19T14:54:16.637Z,2.40
2022-12-19T14:54:28.757Z,2.20
2022-12-19T14:56:56.039Z,2.27
2022-12-19T14:59:05.606Z,2.00
2022-12-19T15:01:35.162Z,3.90
2022-12-19T15:04:52.764Z,6.03
2022-12-19T15:07:08.493Z,5.43
2022-12-19T15:14:46.844Z,1.63
2022-12-19T15:16:02.952Z,2.57
2022-12-19T15:18:32.805Z,2.93
2022-12-19T15:21:05.697Z,3.13
2022-12-19T15:26:07.041Z,1.93
2022-12-19T15:28:48.135Z,1.60
2022-12-19T15:31:43.703Z,4.93
2022-12-19T15:36:58.186Z,1.83
2022-12-19T15:39:26.197Z,1.60
2022-12-19T15:41:54.889Z,3.53
2022-12-19T15:44:36.848Z,2.17
2022-12-19T15:47:06.686Z,3.83
2022-12-19T15:49:35.219Z,3.47
2022-12-19T15:52:03.278Z,3.10
2022-12-19T15:57:24.890Z,2.47
2022-12-19T15:59:52.128Z,3.37
2022-12-19T16:02:22.821Z,4.70
2022-12-19T16:04:51.309Z,2.53
2022-12-19T16:07:20.991Z,3.33
2022-12-19T16:09:48.836Z,2.10
2022-12-19T16:12:22.021Z,4.07
2022-12-19T16:14:56.648Z,3.63
2022-12-19T16:17:25.202Z,3.43
2022-12-19T16:19:51.947Z,3.43
2022-12-19T16:22:22.588Z,2.50
2022-12-19T16:24:51.548Z,2.83
2022-12-19T16:27:38.431Z,1.80
2022-12-19T16:30:22.247Z,4.27
2022-12-19T16:32:50.238Z,3.13
2022-12-19T16:35:34.560Z,5.17
2022-12-19T16:38:07.488Z,2.33
2022-12-19T16:40:34.209Z,4.77
2022-12-19T16:43:10.671Z,4.10
2022-12-19T16:45:38.180Z,2.73
2022-12-19T16:48:21.010Z,2.60
2022-12-19T16:50:48.722Z,2.40
2022-12-19T16:53:15.797Z,3.37
2022-12-19T16:55:43.539Z,2.07
2022-12-19T16:58:22.496Z,3.60
2022-12-19T17:00:52.193Z,2.20
2022-12-19T17:03:38.064Z,3.00
2022-12-19T17:06:04.792Z,2.97
2022-12-19T17:08:32.500Z,2.97
2022-12-19T17:10:59.408Z,2.53
2022-12-19T17:13:26.848Z,3.60
2022-12-19T17:15:57.041Z,2.57
2022-12-19T17:18:29.076Z,2.10
2022-12-19T17:20:55.865Z,2.83
2022-12-19T17:23:24.447Z,1.93
2022-12-19T17:25:52.153Z,2.77
2022-12-19T17:28:18.853Z,2.00
2022-12-19T17:30:51.254Z,4.20
2022-12-19T17:33:19.367Z,4.32
2022-12-19T17:35:46.904Z,3.30
2022-12-19T17:38:15.883Z,3.10
2022-12-19T17:40:43.817Z,6.60
2022-12-19T17:43:12.301Z,4.27
2022-12-19T17:45:40.149Z,5.40
2022-12-19T17:48:32.774Z,4.23
2022-12-19T17:51:00.182Z,4.40
2022-12-19T17:53:27.140Z,7.43
2022-12-19T17:55:54.117Z,4.10
2022-12-19T17:58:21.772Z,4.63
2022-12-19T18:00:50.139Z,7.97
2022-12-19T18:03:22.099Z,6.33
2022-12-19T18:05:50.711Z,5.90
2022-12-19T18:08:30.625Z,6.83
2022-12-19T18:11:02.862Z,6.50
2022-12-19T18:13:31.942Z,5.88
2022-12-19T18:16:01.491Z,5.23
2022-12-19T18:18:35.305Z,5.87
2022-12-19T18:21:02.924Z,4.73
2022-12-19T18:23:32.813Z,8.47
2022-12-19T18:26:02.450Z,3.90
2022-12-19T18:28:30.105Z,6.33
2022-12-19T18:31:03.288Z,4.10
2022-12-19T18:33:37.166Z,4.77
2022-12-19T18:36:05.923Z,5.27
2022-12-19T18:38:33.000Z,3.57
2022-12-19T18:41:00.033Z,7.13
2022-12-19T18:43:26.764Z,5.20
2022-12-19T18:45:53.962Z,7.67
2022-12-19T18:48:31.045Z,5.07
2022-12-19T18:50:59.616Z,7.73
2022-12-19T18:53:35.610Z,11.03
2022-12-19T18:56:04.530Z,10.73
2022-12-19T18:58:31.399Z,10.17
2022-12-19T19:01:00.000Z,9.30
2022-12-19T19:03:31.666Z,5.73
2022-12-19T19:05:58.921Z,7.50
2022-12-19T19:08:28.567Z,6.93
2022-12-19T19:10:56.518Z,8.30
2022-12-19T19:13:25.542Z,6.60
2022-12-19T19:15:54.203Z,8.20
2022-12-19T19:18:25.431Z,8.77
2022-12-19T19:21:00.747Z,5.03
2022-12-19T19:23:33.673Z,8.43
2022-12-19T19:26:00.362Z,4.32
2022-12-19T19:28:27.030Z,8.63
2022-12-19T19:30:55.006Z,23.47
2022-12-19T19:33:26.165Z,35.07
2022-12-19T19:35:58.437Z,30.23
2022-12-19T19:38:25.240Z,12.10
2022-12-19T19:40:51.901Z,11.37
2022-12-19T19:43:18.747Z,9.87
2022-12-19T19:45:46.923Z,10.70
2022-12-19T19:48:13.991Z,9.60
2022-12-19T19:50:40.794Z,10.63
2022-12-19T19:53:10.422Z,12.30
2022-12-19T19:55:38.546Z,11.17
2022-12-19T19:58:05.363Z,11.33
2022-12-19T20:00:32.008Z,13.03
2022-12-19T20:03:02.030Z,14.63
2022-12-19T20:07:58.325Z,9.03
2022-12-19T20:10:24.969Z,14.33
2022-12-19T20:12:51.832Z,8.20
2022-12-19T20:15:18.566Z,6.80
2022-12-19T20:17:45.512Z,9.93
2022-12-19T20:20:12.527Z,10.77
2022-12-19T20:22:39.241Z,7.13
2022-12-19T20:25:06.151Z,10.87
2022-12-19T20:27:32.877Z,8.40
2022-12-19T20:29:59.564Z,11.90
2022-12-19T20:32:26.382Z,10.73
2022-12-19T20:34:53.160Z,12.50
2022-12-19T20:37:19.787Z,8.87
2022-12-19T20:39:46.455Z,15.70
2022-12-19T20:42:13.383Z,12.07
2022-12-19T20:44:40.070Z,15.33
2022-12-19T20:47:06.723Z,13.70
2022-12-19T20:49:33.636Z,28.17
2022-12-19T20:52:00.426Z,42.53
2022-12-19T20:54:27.078Z,43.73
2022-12-19T20:56:54.064Z,34.63
2022-12-19T20:59:20.723Z,33.63
2022-12-19T21:01:47.561Z,22.77
2022-12-19T21:04:14.969Z,28.73
2022-12-19T21:06:42.027Z,13.70
2022-12-19T21:09:10.572Z,8.27
2022-12-19T21:11:37.526Z,11.13
2022-12-19T21:14:05.899Z,12.63
2022-12-19T21:16:32.770Z,13.83
2022-12-19T21:18:59.687Z,10.67
2022-12-19T21:21:27.067Z,8.67
2022-12-19T21:23:54.630Z,10.10
2022-12-19T21:26:23.307Z,9.00
2022-12-19T21:28:50.820Z,12.57
2022-12-19T21:31:25.301Z,9.70
2022-12-19T21:33:58.324Z,9.30
2022-12-19T21:38:55.270Z,10.27
2022-12-19T21:41:22.615Z,10.97
2022-12-19T21:43:53.759Z,9.53
2022-12-19T21:46:23.893Z,7.57
2022-12-19T21:48:52.529Z,11.93
2022-12-19T21:51:20.918Z,9.53
2022-12-19T21:53:48.592Z,14.87
2022-12-19T21:56:32.344Z,13.03
2022-12-19T21:59:02.056Z,16.93
2022-12-19T22:01:30.293Z,12.30
2022-12-19T22:04:02.835Z,10.60
2022-12-19T22:06:31.909Z,14.20
2022-12-19T22:09:00.262Z,11.37
2022-12-19T22:11:28.771Z,12.03
2022-12-19T22:13:55.863Z,14.60
2022-12-19T22:16:22.579Z,14.33
2022-12-19T22:18:51.496Z,10.43
2022-12-19T22:21:19.204Z,13.43
2022-12-19T22:23:45.828Z,10.33
2022-12-19T22:26:15.954Z,13.73
2022-12-19T22:28:47.281Z,16.30
2022-12-19T22:31:37.524Z,10.57
2022-12-19T22:34:07.134Z,13.33
2022-12-19T22:36:36.057Z,18.37
2022-12-19T22:39:05.997Z,12.67
2022-12-19T22:41:34.443Z,10.73
2022-12-19T22:44:01.521Z,8.60
2022-12-19T22:46:31.320Z,8.00
2022-12-19T22:49:02.475Z,13.33
2022-12-19T22:51:31.089Z,8.47
2022-12-19T22:53:58.842Z,9.87
2022-12-19T22:56:28.577Z,23.07
2022-12-19T22:58:59.030Z,19.30
2022-12-19T23:01:28.953Z,16.57
2022-12-19T23:03:58.524Z,18.37
2022-12-19T23:06:28.025Z,14.73
2022-12-19T23:08:54.974Z,17.20
2022-12-19T23:11:26.295Z,8.20
2022-12-19T23:13:53.189Z,10.77
2022-12-19T23:16:20.090Z,12.17
2022-12-19T23:18:46.803Z,16.53
2022-12-19T23:21:17.540Z,19.10
2022-12-19T23:23:45.771Z,14.23
2022-12-19T23:26:19.326Z,13.47
2022-12-19T23:28:57.676Z,14.13
2022-12-19T23:31:24.937Z,6.37
2022-12-19T23:33:51.945Z,14.57
2022-12-19T23:36:38.221Z,12.40
2022-12-19T23:39:05.793Z,11.90
2022-12-19T23:41:32.834Z,14.63
2022-12-19T23:43:59.731Z,13.23
2022-12-19T23:46:27.166Z,13.67
2022-12-19T23:48:55.031Z,9.47
2022-12-19T23:51:25.524Z,11.90
2022-12-19T23:53:53.338Z,10.40
2022-12-19T23:56:23.355Z,7.80
2022-12-19T23:58:50.207Z,12.50
